Time;durP1;ratioP1;P1;durP2;ratioP2;P2;SDS_P1;SDS_P2;PMS_P1;PMS_P2;Temp;Humidity;BMP_temperature;BMP_pressure;BME280_temperature;BME280_humidity;BME280_pressure;Samples;Min_cycle;Max_cycle;Signal;HPM_P1;HPM_P2
2021/03/23 00:01:53;;;;;;;7.27;6.67;;;4.90;97.50;;;;;;6300381;28;20481;-63
2021/03/23 00:04:56;;;;;;;6.43;5.83;;;4.80;97.70;;;;;;6274770;28;20471;-65
2021/03/23 00:07:58;;;;;;;12.93;6.87;;;4.80;98.00;;;;;;6298358;28;20706;-64
2021/03/23 00:11:04;;;;;;;11.43;6.93;;;4.70;98.00;;;;;;6253316;28;20443;-65
2021/03/23 00:14:10;;;;;;;7.17;6.57;;;4.60;97.90;;;;;;6251860;28;20448;-64
2021/03/23 00:17:13;;;;;;;9.93;7.50;;;4.60;97.90;;;;;;6251199;28;20610;-65
2021/03/23 00:20:18;;;;;;;10.13;8.07;;;4.60;98.40;;;;;;6250674;28;20781;-65
2021/03/23 00:23:20;;;;;;;8.37;7.43;;;4.60;98.00;;;;;;6263921;28;20470;-65
2021/03/23 00:26:23;;;;;;;8.60;7.23;;;4.60;98.00;;;;;;6275211;28;20771;-65
2021/03/23 00:29:26;;;;;;;8.40;7.30;;;4.50;97.80;;;;;;6275320;28;20474;-64
2021/03/23 00:32:29;;;;;;;9.63;8.07;;;4.50;97.80;;;;;;6275444;28;20482;-64
2021/03/23 00:35:35;;;;;;;7.97;7.00;;;4.50;97.90;;;;;;6274775;28;20477;-66
2021/03/23 00:38:41;;;;;;;8.77;7.77;;;4.50;97.90;;;;;;6274581;28;20553;-66
2021/03/23 00:41:44;;;;;;;10.90;7.43;;;4.50;97.90;;;;;;6273884;28;20473;-66
2021/03/23 00:44:47;;;;;;;9.00;7.00;;;4.40;97.90;;;;;;6274217;28;20466;-64
2021/03/23 00:47:50;;;;;;;8.13;7.33;;;4.40;97.90;;;;;;6267536;28;20952;-64
2021/03/23 00:50:53;;;;;;;9.47;6.60;;;4.50;98.10;;;;;;6271668;28;20470;-65
2021/03/23 00:53:57;;;;;;;7.13;6.43;;;4.40;98.10;;;;;;6271948;28;20466;-64
2021/03/23 00:57:00;;;;;;;7.80;7.10;;;4.40;98.30;;;;;;6272632;28;20478;-66
2021/03/23 01:00:03;;;;;;;8.70;7.20;;;4.40;98.20;;;;;;6273096;28;20474;-64
2021/03/23 01:03:06;;;;;;;7.97;6.93;;;4.40;98.10;;;;;;6274558;28;20959;-64
2021/03/23 01:06:08;;;;;;;8.20;7.13;;;4.40;97.80;;;;;;6274822;28;20477;-64
2021/03/23 01:09:11;;;;;;;10.10;8.20;;;4.30;97.70;;;;;;6274845;28;20471;-64
2021/03/23 01:12:14;;;;;;;12.83;8.30;;;4.30;97.80;;;;;;6274660;28;20478;-64
2021/03/23 01:15:20;;;;;;;9.87;8.00;;;4.20;97.80;;;;;;6274526;28;20470;-64
2021/03/23 01:18:23;;;;;;;9.77;8.10;;;4.20;97.80;;;;;;6274398;28;20470;-64
2021/03/23 01:21:26;;;;;;;8.67;7.70;;;4.10;97.90;;;;;;6274617;28;20474;-64
2021/03/23 01:24:29;;;;;;;9.77;8.77;;;4.00;97.90;;;;;;6274570;28;20561;-65
2021/03/23 01:27:32;;;;;;;7.23;6.53;;;3.90;98.00;;;;;;6274452;28;20481;-64
2021/03/23 01:30:34;;;;;;;8.00;7.20;;;3.80;97.90;;;;;;6274441;28;20824;-64
2021/03/23 01:33:38;;;;;;;8.90;7.97;;;3.80;98.00;;;;;;6273989;28;20470;-64
2021/03/23 01:36:41;;;;;;;9.33;8.30;;;3.80;98.10;;;;;;6275241;28;20471;-64
2021/03/23 01:39:43;;;;;;;9.47;7.90;;;3.70;98.00;;;;;;6274567;28;20537;-64
2021/03/23 01:42:48;;;;;;;7.87;7.07;;;3.70;98.10;;;;;;6274276;28;20524;-64
2021/03/23 01:45:50;;;;;;;7.63;6.93;;;3.60;98.00;;;;;;6274597;28;20482;-64
2021/03/23 01:48:53;;;;;;;10.40;7.93;;;3.60;98.20;;;;;;6274844;28;20547;-64
2021/03/23 01:52:02;;;;;;;6.50;5.90;;;3.60;98.10;;;;;;6274464;28;20471;-64
2021/03/23 01:55:08;;;;;;;8.17;7.37;;;3.60;98.10;;;;;;6264944;28;20470;-64
2021/03/23 01:58:11;;;;;;;8.37;6.80;;;3.50;98.10;;;;;;6274261;28;20478;-65
2021/03/23 02:01:17;;;;;;;8.40;7.30;;;3.50;98.20;;;;;;6273908;28;20484;-64
2021/03/23 02:04:20;;;;;;;7.80;7.10;;;3.40;98.20;;;;;;6274446;28;20478;-64
2021/03/23 02:07:23;;;;;;;8.10;6.50;;;3.30;98.30;;;;;;6274094;28;20565;-64
2021/03/23 02:10:26;;;;;;;7.50;6.63;;;3.30;98.50;;;;;;6273906;28;20477;-64
2021/03/23 02:13:28;;;;;;;9.07;7.07;;;3.20;98.40;;;;;;6273664;28;20484;-64
2021/03/23 02:16:31;;;;;;;10.50;7.27;;;3.20;98.50;;;;;;6273990;28;20548;-64
2021/03/23 02:19:34;;;;;;;9.57;7.43;;;3.20;98.40;;;;;;6273571;28;20545;-64
2021/03/23 02:22:38;;;;;;;7.90;7.17;;;3.10;98.40;;;;;;6273693;28;20520;-64
2021/03/23 02:25:41;;;;;;;8.80;7.70;;;3.10;98.50;;;;;;6273403;28;20483;-64
2021/03/23 02:28:52;;;;;;;7.90;7.10;;;3.10;98.40;;;;;;6277592;28;21002;-64
2021/03/23 02:31:54;;;;;;;8.10;6.80;;;3.10;98.40;;;;;;6277781;28;20473;-64
2021/03/23 02:34:57;;;;;;;9.87;7.30;;;3.00;98.70;;;;;;6253349;28;20796;-64
2021/03/23 02:38:01;;;;;;;12.13;7.70;;;3.00;98.70;;;;;;6253075;28;20439;-64
2021/03/23 02:41:03;;;;;;;8.10;7.30;;;2.70;99.00;;;;;;6253128;28;20458;-64
2021/03/23 02:44:07;;;;;;;10.30;6.57;;;2.60;99.30;;;;;;6252682;28;20455;-64
2021/03/23 02:47:10;;;;;;;7.33;6.63;;;2.60;99.40;;;;;;6253024;28;20490;-64
2021/03/23 02:50:15;;;;;;;7.67;5.87;;;2.60;99.60;;;;;;6253308;28;20658;-64
2021/03/23 02:53:18;;;;;;;11.30;6.80;;;2.60;99.60;;;;;;6252989;28;20994;-65
2021/03/23 02:56:20;;;;;;;10.87;6.80;;;2.60;99.60;;;;;;6248538;28;20471;-64
2021/03/23 02:59:23;;;;;;;6.97;6.20;;;2.60;99.70;;;;;;6252720;28;20545;-64
2021/03/23 03:02:25;;;;;;;8.23;6.97;;;2.70;99.60;;;;;;6253117;28;20471;-64
2021/03/23 03:05:27;;;;;;;6.90;6.20;;;2.70;99.60;;;;;;6253096;28;20479;-64
2021/03/23 03:08:31;;;;;;;7.67;6.97;;;2.70;99.40;;;;;;6252609;28;20984;-64
2021/03/23 03:11:33;;;;;;;7.40;6.60;;;2.70;99.30;;;;;;6252583;28;20475;-64
2021/03/23 03:14:36;;;;;;;6.70;6.13;;;2.80;99.30;;;;;;6252296;28;20481;-64
2021/03/23 03:17:38;;;;;;;7.17;5.53;;;2.70;99.40;;;;;;6252774;28;20478;-64
2021/03/23 03:20:40;;;;;;;7.03;5.90;;;2.70;99.20;;;;;;6252767;28;20467;-64
2021/03/23 03:23:43;;;;;;;7.77;6.27;;;2.70;99.10;;;;;;6252444;28;20479;-64
2021/03/23 03:26:45;;;;;;;10.00;6.27;;;2.70;99.00;;;;;;6252606;28;20945;-64
2021/03/23 03:29:48;;;;;;;8.97;7.30;;;2.60;99.10;;;;;;6252352;28;20553;-64
2021/03/23 03:32:51;;;;;;;7.20;6.20;;;2.60;99.10;;;;;;6252608;28;20475;-65
2021/03/23 03:35:53;;;;;;;7.03;6.23;;;2.60;99.10;;;;;;6252245;28;20553;-64
2021/03/23 03:38:57;;;;;;;6.90;5.97;;;2.50;99.20;;;;;;6251897;28;21127;-64
2021/03/23 03:41:59;;;;;;;8.13;6.33;;;2.50;99.30;;;;;;6252256;28;20482;-64
2021/03/23 03:45:01;;;;;;;7.23;5.80;;;2.40;99.00;;;;;;6251970;28;20467;-64
2021/03/23 03:48:04;;;;;;;9.40;6.80;;;2.50;99.00;;;;;;6251736;28;20471;-64
2021/03/23 03:51:07;;;;;;;10.33;7.50;;;2.40;99.00;;;;;;6252188;28;20486;-64
2021/03/23 03:54:10;;;;;;;10.53;7.73;;;2.50;99.00;;;;;;6251899;28;20467;-64
2021/03/23 03:57:12;;;;;;;14.97;8.60;;;2.40;98.70;;;;;;6251596;28;20479;-64
2021/03/23 04:00:17;;;;;;;8.40;7.23;;;2.40;98.70;;;;;;6251303;28;20798;-64
2021/03/23 04:03:21;;;;;;;8.73;6.80;;;2.30;98.50;;;;;;6251546;28;20601;-64
2021/03/23 04:06:24;;;;;;;9.03;7.10;;;2.30;98.60;;;;;;6251259;28;20991;-64
2021/03/23 04:09:27;;;;;;;8.20;6.77;;;2.30;98.70;;;;;;6251336;28;20467;-64
2021/03/23 04:12:29;;;;;;;8.90;7.57;;;2.30;98.60;;;;;;6251454;28;20475;-64
2021/03/23 04:15:34;;;;;;;7.73;6.27;;;2.30;99.00;;;;;;6250876;28;20799;-65
2021/03/23 04:18:36;;;;;;;6.10;5.60;;;2.30;98.50;;;;;;6250802;28;20821;-64
2021/03/23 04:21:39;;;;;;;7.47;5.60;;;2.30;98.30;;;;;;6250687;28;20586;-64
2021/03/23 04:24:42;;;;;;;9.13;5.87;;;2.30;98.30;;;;;;6250479;28;20475;-64
2021/03/23 04:27:44;;;;;;;6.97;6.07;;;2.20;98.10;;;;;;6250762;28;20482;-64
2021/03/23 04:30:47;;;;;;;5.73;5.23;;;2.10;98.40;;;;;;6250733;28;20471;-64
2021/03/23 04:33:49;;;;;;;7.87;5.97;;;2.10;98.40;;;;;;6251053;28;20991;-64
2021/03/23 04:36:51;;;;;;;7.73;5.77;;;2.00;98.50;;;;;;6250781;28;20467;-64
2021/03/23 04:39:54;;;;;;;17.33;9.60;;;2.10;98.50;;;;;;6250473;28;20475;-65
2021/03/23 04:42:56;;;;;;;10.53;6.43;;;2.00;98.20;;;;;;6250373;28;20484;-64
2021/03/23 04:45:59;;;;;;;8.77;5.80;;;2.10;98.30;;;;;;6250140;28;20804;-64
2021/03/23 04:49:01;;;;;;;7.30;5.13;;;2.00;98.40;;;;;;6250323;28;20859;-64
2021/03/23 04:52:04;;;;;;;5.50;5.00;;;2.10;98.30;;;;;;6250591;28;20517;-64
2021/03/23 04:55:09;;;;;;;8.37;6.10;;;2.10;98.30;;;;;;6250262;28;20486;-64
2021/03/23 04:58:11;;;;;;;9.50;6.53;;;2.10;98.30;;;;;;6250016;28;20546;-64
2021/03/23 05:01:13;;;;;;;8.33;5.10;;;2.10;98.00;;;;;;6250339;28;20829;-64
2021/03/23 05:04:18;;;;;;;7.07;5.70;;;2.10;98.10;;;;;;6250635;28;20518;-64
2021/03/23 05:07:20;;;;;;;6.90;5.20;;;2.30;98.40;;;;;;6240776;28;20957;-64
2021/03/23 05:10:23;;;;;;;10.77;5.97;;;2.10;97.90;;;;;;6249361;28;20980;-64
2021/03/23 05:13:26;;;;;;;8.23;6.27;;;2.00;98.00;;;;;;6249905;28;20483;-64
2021/03/23 05:16:28;;;;;;;10.07;5.33;;;2.00;98.20;;;;;;6249582;28;20498;-64
2021/03/23 05:19:30;;;;;;;6.80;5.43;;;2.10;98.40;;;;;;6249455;28;20594;-64
2021/03/23 05:22:33;;;;;;;8.33;6.37;;;2.00;98.40;;;;;;6249641;28;20486;-64
2021/03/23 05:25:38;;;;;;;9.20;6.70;;;2.00;98.70;;;;;;6249057;28;20500;-64
2021/03/23 05:28:40;;;;;;;9.90;8.03;;;2.00;98.80;;;;;;6249395;28;20474;-64
2021/03/23 05:31:42;;;;;;;8.20;7.23;;;2.00;99.30;;;;;;6249538;28;20477;-65
2021/03/23 05:34:44;;;;;;;7.83;7.10;;;2.10;99.20;;;;;;6249128;28;20497;-64
2021/03/23 05:37:46;;;;;;;7.13;6.47;;;2.20;99.00;;;;;;6249165;28;20485;-64
2021/03/23 05:40:53;;;;;;;8.83;7.17;;;2.30;99.10;;;;;;6249201;28;20475;-64
2021/03/23 05:44:02;;;;;;;8.67;6.60;;;2.50;99.00;;;;;;6273744;28;20439;-64
2021/03/23 05:47:10;;;;;;;13.97;7.97;;;2.60;98.80;;;;;;6274020;28;20473;-65
2021/03/23 05:50:23;;;;;;;8.60;7.00;;;2.70;98.20;;;;;;6273909;28;20772;-64
2021/03/23 05:53:34;;;;;;;11.00;7.63;;;2.80;98.20;;;;;;6274046;28;20474;-65
2021/03/23 05:56:39;;;;;;;8.60;7.80;;;2.90;98.30;;;;;;6274214;28;20477;-65
2021/03/23 05:59:47;;;;;;;8.27;6.87;;;3.00;98.10;;;;;;6274303;28;20477;-65
2021/03/23 06:02:57;;;;;;;7.27;6.13;;;3.20;98.10;;;;;;6276703;28;20964;-65
2021/03/23 06:06:05;;;;;;;11.97;6.80;;;3.30;98.00;;;;;;6279094;28;20474;-64
2021/03/23 06:09:12;;;;;;;9.17;6.30;;;3.60;97.40;;;;;;6269655;28;20553;-65
2021/03/23 06:12:28;;;;;;;9.37;6.93;;;3.80;96.80;;;;;;6279038;28;20489;-65
2021/03/23 06:15:38;;;;;;;10.73;7.27;;;4.00;96.40;;;;;;6278827;28;20526;-65
2021/03/23 06:18:52;;;;;;;9.90;7.10;;;4.10;95.90;;;;;;6279159;28;20465;-65
2021/03/23 06:22:01;;;;;;;14.07;7.70;;;4.30;95.90;;;;;;6278661;28;20497;-66
2021/03/23 06:25:21;;;;;;;7.70;6.90;;;4.60;95.40;;;;;;6278388;28;20830;-66
2021/03/23 06:28:35;;;;;;;8.37;7.43;;;4.80;94.80;;;;;;6278229;28;20888;-65
2021/03/23 06:31:57;;;;;;;14.17;8.67;;;5.10;94.40;;;;;;6278195;28;20486;-65
2021/03/23 06:35:00;;;;;;;11.37;8.37;;;5.30;93.90;;;;;;6278413;28;20453;-65
2021/03/23 06:38:03;;;;;;;15.53;8.67;;;5.50;93.40;;;;;;6278554;28;20446;-65
2021/03/23 06:41:16;;;;;;;15.73;9.40;;;5.80;93.10;;;;;;6277769;28;20776;-65
2021/03/23 06:44:26;;;;;;;14.47;8.00;;;6.00;92.50;;;;;;6278720;28;20462;-65
2021/03/23 06:47:35;;;;;;;12.47;8.97;;;6.20;92.10;;;;;;6278238;28;20470;-64
2021/03/23 06:50:38;;;;;;;20.80;8.27;;;6.30;91.50;;;;;;6278300;28;20470;-64
2021/03/23 06:53:41;;;;;;;15.40;8.87;;;6.20;91.40;;;;;;6277935;28;20490;-64
2021/03/23 06:56:44;;;;;;;13.23;9.20;;;6.40;91.60;;;;;;6277648;28;20470;-64
2021/03/23 06:59:54;;;;;;;13.70;7.97;;;6.60;90.80;;;;;;6277839;28;20466;-64
2021/03/23 07:03:11;;;;;;;12.97;8.47;;;6.60;90.70;;;;;;6277763;28;20486;-63
2021/03/23 07:06:26;;;;;;;13.70;9.03;;;6.80;90.60;;;;;;6277857;28;20485;-65
2021/03/23 07:09:32;;;;;;;14.20;9.10;;;7.00;90.00;;;;;;6277336;28;20462;-63
2021/03/23 07:12:40;;;;;;;12.10;8.90;;;7.10;90.00;;;;;;6272086;28;20470;-63
2021/03/23 07:15:56;;;;;;;15.87;8.80;;;7.40;89.40;;;;;;6277123;28;20474;-65
2021/03/23 07:19:10;;;;;;;16.00;9.03;;;7.40;88.30;;;;;;6277204;28;20503;-63
2021/03/23 07:22:19;;;;;;;12.73;10.40;;;7.40;87.30;;;;;;6276696;28;20541;-64
2021/03/23 07:25:33;;;;;;;15.40;9.63;;;7.50;86.90;;;;;;6276785;28;20479;-65
2021/03/23 07:28:37;;;;;;;16.03;10.20;;;7.80;85.80;;;;;;6276673;28;20478;-64
2021/03/23 07:31:42;;;;;;;18.63;10.47;;;8.00;85.70;;;;;;6276538;28;20485;-64
2021/03/23 07:35:02;;;;;;;12.13;9.20;;;8.30;85.10;;;;;;6276668;28;20967;-65
2021/03/23 07:38:18;;;;;;;12.53;10.87;;;8.50;82.90;;;;;;6276807;28;20446;-62
2021/03/23 07:41:24;;;;;;;16.73;10.80;;;8.70;81.30;;;;;;6276595;28;20474;-64
2021/03/23 07:44:37;;;;;;;24.43;11.13;;;8.80;82.10;;;;;;6276672;28;20546;-63
2021/03/23 07:47:47;;;;;;;13.57;9.43;;;9.10;80.70;;;;;;6276746;28;20467;-66
2021/03/23 07:51:01;;;;;;;14.53;9.10;;;9.60;77.80;;;;;;6276488;28;20547;-65
2021/03/23 07:54:26;;;;;;;22.20;11.37;;;10.10;73.80;;;;;;6276028;28;20521;-65
2021/03/23 07:58:02;;;;;;;18.40;11.77;;;10.50;72.80;;;;;;6275950;28;20982;-67
2021/03/23 08:01:26;;;;;;;13.90;9.40;;;11.10;69.50;;;;;;6275699;28;20476;-62
2021/03/23 08:04:48;;;;;;;26.27;10.77;;;11.90;66.60;;;;;;6285192;28;20917;-64
2021/03/23 08:07:56;;;;;;;14.60;9.07;;;12.80;62.70;;;;;;6295019;28;20818;-63
2021/03/23 08:11:08;;;;;;;16.63;9.43;;;13.70;57.50;;;;;;6277019;28;20447;-63
2021/03/23 08:14:42;;;;;;;15.83;8.60;;;15.00;54.00;;;;;;6290800;28;20448;-64
2021/03/23 08:18:13;;;;;;;11.67;7.87;;;16.70;48.60;;;;;;6293518;28;20826;-63
2021/03/23 08:21:39;;;;;;;13.90;8.40;;;18.30;44.00;;;;;;6297710;28;21014;-64
2021/03/23 08:24:55;;;;;;;12.47;8.10;;;18.50;41.40;;;;;;6274361;28;20485;-64
2021/03/23 08:28:27;;;;;;;10.10;8.33;;;18.40;41.70;;;;;;6275068;28;20501;-64
2021/03/23 08:31:49;;;;;;;17.33;8.27;;;17.00;40.80;;;;;;6253873;28;20474;-61
2021/03/23 08:35:26;;;;;;;18.10;8.80;;;16.60;42.20;;;;;;6275022;28;20466;-61
2021/03/23 08:38:51;;;;;;;13.83;7.87;;;16.40;42.10;;;;;;6291836;28;20467;-63
2021/03/23 08:42:00;;;;;;;15.53;8.53;;;15.70;42.40;;;;;;6298831;28;20466;-62
2021/03/23 08:45:07;;;;;;;19.20;10.07;;;15.60;42.40;;;;;;6274732;28;20467;-62
2021/03/23 08:48:25;;;;;;;12.93;7.23;;;15.30;43.30;;;;;;6274768;28;20968;-64
2021/03/23 08:51:30;;;;;;;10.90;5.90;;;15.10;42.40;;;;;;6274562;28;20967;-64
2021/03/23 08:54:48;;;;;;;13.47;6.30;;;15.10;41.20;;;;;;6274571;28;20996;-65
2021/03/23 08:57:56;;;;;;;11.97;7.00;;;15.10;40.90;;;;;;6274480;28;20816;-64
2021/03/23 09:01:01;;;;;;;8.40;6.90;;;15.30;40.50;;;;;;6270316;28;20811;-63
2021/03/23 09:04:39;;;;;;;6.23;5.67;;;15.40;39.70;;;;;;6270439;28;20481;-63
2021/03/23 09:07:42;;;;;;;8.90;5.93;;;15.40;39.00;;;;;;6270802;28;21023;-63
2021/03/23 09:10:59;;;;;;;8.50;4.93;;;16.40;37.80;;;;;;6271088;28;20792;-65
2021/03/23 09:14:17;;;;;;;7.30;5.60;;;17.60;35.00;;;;;;6284572;28;20460;-64
2021/03/23 09:17:37;;;;;;;6.43;5.40;;;18.10;33.40;;;;;;6299322;28;20903;-65
2021/03/23 09:21:01;;;;;;;10.10;5.60;;;18.70;32.20;;;;;;6290343;28;20474;-65
2021/03/23 09:24:24;;;;;;;8.30;4.37;;;21.00;30.20;;;;;;6299206;28;20246;-64
2021/03/23 09:27:56;;;;;;;9.57;3.80;;;22.10;28.00;;;;;;6299008;28;20239;-65
2021/03/23 09:30:59;;;;;;;8.40;5.03;;;21.50;26.60;;;;;;6298808;28;20688;-64
2021/03/23 09:34:01;;;;;;;6.80;3.87;;;19.30;28.00;;;;;;6299377;28;20231;-65
2021/03/23 09:37:29;;;;;;;4.73;3.83;;;18.10;29.40;;;;;;6302748;28;20473;-64
2021/03/23 09:40:39;;;;;;;8.37;4.43;;;17.20;30.10;;;;;;6303837;28;20461;-64
2021/03/23 09:43:42;;;;;;;7.13;4.07;;;16.00;30.20;;;;;;6304270;28;20461;-64
2021/03/23 09:46:47;;;;;;;4.80;4.30;;;14.90;31.70;;;;;;6303792;28;20542;-65
2021/03/23 09:49:49;;;;;;;4.33;3.53;;;14.50;33.50;;;;;;6304373;28;20572;-66
2021/03/23 09:53:00;;;;;;;8.87;3.60;;;16.40;33.00;;;;;;6303919;28;20491;-67
2021/03/23 09:56:08;;;;;;;6.30;4.50;;;21.00;28.60;;;;;;6304310;28;20453;-65
2021/03/23 09:59:13;;;;;;;9.77;4.67;;;23.00;26.60;;;;;;6303982;28;20237;-66
2021/03/23 10:02:22;;;;;;;4.47;4.07;;;27.10;23.90;;;;;;6303477;28;20669;-65
2021/03/23 10:05:27;;;;;;;5.03;4.23;;;27.10;21.50;;;;;;6303508;28;20748;-65
2021/03/23 10:08:34;;;;;;;10.10;3.97;;;24.40;22.70;;;;;;6280683;28;20553;-66
2021/03/23 10:11:47;;;;;;;7.40;4.13;;;24.10;23.20;;;;;;6278514;28;20228;-65
2021/03/23 10:14:50;;;;;;;4.20;3.60;;;23.30;24.30;;;;;;6297957;28;20233;-64
2021/03/23 10:18:07;;;;;;;5.90;4.40;;;24.90;23.30;;;;;;6303326;28;20237;-65
2021/03/23 10:21:13;;;;;;;5.57;3.90;;;26.20;21.80;;;;;;6302966;28;20230;-65
2021/03/23 10:24:17;;;;;;;3.97;3.57;;;28.10;20.60;;;;;;6298220;28;20254;-67
2021/03/23 10:27:26;;;;;;;5.60;4.07;;;31.10;19.30;;;;;;6302769;28;20238;-65
2021/03/23 10:30:35;;;;;;;7.53;5.00;;;32.60;17.30;;;;;;6303276;28;20335;-64
2021/03/23 10:33:40;;;;;;;6.10;4.10;;;32.80;17.40;;;;;;6302593;28;20284;-65
2021/03/23 10:36:50;;;;;;;4.77;3.93;;;31.60;17.30;;;;;;6302994;28;20223;-65
2021/03/23 10:39:52;;;;;;;5.20;4.00;;;29.30;17.90;;;;;;6302928;28;20261;-65
2021/03/23 10:43:14;;;;;;;5.00;3.40;;;26.70;19.40;;;;;;6302424;28;20231;-65
2021/03/23 10:46:28;;;;;;;8.33;3.80;;;24.60;21.60;;;;;;6302515;28;20280;-65
2021/03/23 10:49:35;;;;;;;4.80;3.43;;;23.40;21.50;;;;;;6302064;28;20255;-65
2021/03/23 10:52:38;;;;;;;5.10;3.23;;;22.00;22.60;;;;;;6302008;28;20242;-65
2021/03/23 10:55:42;;;;;;;4.33;3.93;;;22.10;23.40;;;;;;6302217;28;20719;-65
2021/03/23 10:59:04;;;;;;;5.53;4.20;;;21.90;22.80;;;;;;6302118;28;20230;-64
2021/03/23 11:02:21;;;;;;;3.80;3.10;;;21.20;23.50;;;;;;6302262;28;20223;-64
2021/03/23 11:05:24;;;;;;;3.10;2.80;;;20.50;24.20;;;;;;6302580;28;20235;-66
2021/03/23 11:08:27;;;;;;;4.83;3.40;;;19.90;24.70;;;;;;6280670;28;20232;-64
2021/03/23 11:11:30;;;;;;;4.30;3.10;;;19.00;24.90;;;;;;6276753;28;20304;-65
2021/03/23 11:14:36;;;;;;;7.40;3.10;;;18.00;25.70;;;;;;6294792;28;20235;-64
2021/03/23 11:17:47;;;;;;;5.43;2.70;;;17.90;26.10;;;;;;6301905;28;20986;-63
2021/03/23 11:20:53;;;;;;;5.20;2.80;;;18.80;27.00;;;;;;6301878;28;20241;-64
2021/03/23 11:23:56;;;;;;;4.70;3.13;;;19.00;25.40;;;;;;6301565;28;20266;-64
2021/03/23 11:27:00;;;;;;;2.70;2.50;;;18.00;25.90;;;;;;6296828;28;20626;-64
2021/03/23 11:30:03;;;;;;;4.60;3.00;;;17.00;27.10;;;;;;6302069;28;20241;-65
2021/03/23 11:33:06;;;;;;;4.60;2.70;;;16.40;28.00;;;;;;6301748;28;20492;-65
2021/03/23 11:36:11;;;;;;;3.87;2.90;;;16.50;28.00;;;;;;6301642;28;20558;-65
2021/03/23 11:39:14;;;;;;;5.30;2.53;;;16.10;28.00;;;;;;6301558;28;20969;-65
2021/03/23 11:42:22;;;;;;;4.97;3.33;;;15.60;28.80;;;;;;6301470;28;20477;-65
2021/03/23 11:45:31;;;;;;;4.43;2.73;;;15.00;29.80;;;;;;6301072;28;20469;-65
2021/03/23 11:48:36;;;;;;;3.90;2.67;;;14.30;30.80;;;;;;6301004;28;20473;-65
2021/03/23 11:51:45;;;;;;;2.90;2.40;;;13.90;31.60;;;;;;6300845;28;20555;-65
2021/03/23 11:54:47;;;;;;;2.80;2.00;;;14.20;31.20;;;;;;6300894;28;20828;-65
2021/03/23 11:57:51;;;;;;;2.97;2.70;;;14.80;31.30;;;;;;6300981;28;20966;-65
2021/03/23 12:00:54;;;;;;;6.60;2.70;;;15.90;29.50;;;;;;6300791;28;20497;-65
2021/03/23 12:03:57;;;;;;;5.33;2.90;;;15.70;30.00;;;;;;6300573;28;20852;-65
2021/03/23 12:07:07;;;;;;;4.33;3.00;;;15.40;29.30;;;;;;6290641;28;20505;-65
2021/03/23 12:10:14;;;;;;;3.87;2.80;;;14.80;30.00;;;;;;6275898;28;20560;-65
2021/03/23 12:13:21;;;;;;;4.40;2.80;;;14.60;30.30;;;;;;6282166;28;20488;-65
2021/03/23 12:16:31;;;;;;;3.27;2.00;;;14.30;30.30;;;;;;6300111;28;20473;-64
2021/03/23 12:19:52;;;;;;;5.50;3.67;;;14.10;31.00;;;;;;6300459;28;20465;-65
2021/03/23 12:23:01;;;;;;;2.80;2.43;;;13.70;30.80;;;;;;6300287;28;20460;-65
2021/03/23 12:26:04;;;;;;;6.00;2.80;;;13.50;31.30;;;;;;6299908;28;20477;-65
2021/03/23 12:29:06;;;;;;;4.63;3.33;;;13.20;31.80;;;;;;6290410;28;20495;-65
2021/03/23 12:32:11;;;;;;;6.67;3.97;;;13.00;32.90;;;;;;6300138;28;20473;-64
2021/03/23 12:35:19;;;;;;;3.47;2.87;;;12.90;33.30;;;;;;6299850;28;20515;-65
2021/03/23 12:38:21;;;;;;;6.27;3.07;;;12.80;33.20;;;;;;6300208;28;20464;-65
2021/03/23 12:41:28;;;;;;;5.30;2.13;;;12.80;33.50;;;;;;6299955;28;20469;-65
2021/03/23 12:44:31;;;;;;;3.80;2.30;;;12.80;33.60;;;;;;6300104;28;20479;-64
2021/03/23 12:47:34;;;;;;;2.43;2.23;;;12.90;33.80;;;;;;6300232;28;20465;-64
2021/03/23 12:50:38;;;;;;;3.97;2.20;;;13.00;36.30;;;;;;6299526;28;20875;-64
2021/03/23 12:53:42;;;;;;;4.13;2.20;;;13.00;34.20;;;;;;6299391;28;20548;-64
2021/03/23 12:56:45;;;;;;;3.97;2.53;;;12.90;33.80;;;;;;6299719;28;20477;-64
2021/03/23 12:59:49;;;;;;;3.57;3.27;;;12.90;33.80;;;;;;6299744;28;20626;-63
2021/03/23 13:02:52;;;;;;;3.93;3.00;;;12.90;33.80;;;;;;6299546;28;20469;-65
2021/03/23 13:05:56;;;;;;;9.03;3.90;;;12.90;33.80;;;;;;6298648;28;20479;-64
2021/03/23 13:09:00;;;;;;;3.70;3.20;;;12.90;33.90;;;;;;6299169;28;20810;-63
2021/03/23 13:12:04;;;;;;;3.00;2.63;;;13.00;34.10;;;;;;6299072;28;20564;-64
2021/03/23 13:15:07;;;;;;;3.30;2.27;;;13.10;33.70;;;;;;6298939;28;20823;-60
2021/03/23 13:18:11;;;;;;;3.40;2.80;;;13.00;34.40;;;;;;6299412;28;20540;-61
2021/03/23 13:21:23;;;;;;;3.37;2.30;;;13.00;34.40;;;;;;6298915;28;20990;-60
2021/03/23 13:24:39;;;;;;;2.80;2.23;;;13.20;33.90;;;;;;6298878;28;20492;-62
2021/03/23 13:27:41;;;;;;;6.70;2.83;;;13.50;34.10;;;;;;6299268;28;20560;-61
2021/03/23 13:30:44;;;;;;;4.13;1.90;;;13.80;33.70;;;;;;6299361;28;20474;-60
2021/03/23 13:33:48;;;;;;;3.17;2.60;;;14.60;33.10;;;;;;6289142;28;20481;-60
2021/03/23 13:36:54;;;;;;;2.90;2.60;;;15.10;31.50;;;;;;6299408;28;20556;-62
2021/03/23 13:39:59;;;;;;;2.87;2.40;;;15.00;31.70;;;;;;6299135;28;20477;-62
2021/03/23 13:43:03;;;;;;;2.10;1.73;;;14.60;32.20;;;;;;6298965;28;20477;-63
2021/03/23 13:46:10;;;;;;;2.70;2.33;;;14.20;32.20;;;;;;6299004;28;20544;-61
2021/03/23 13:49:17;;;;;;;3.37;2.07;;;14.10;32.90;;;;;;6298842;28;20989;-63
2021/03/23 13:52:25;;;;;;;5.33;2.03;;;13.80;32.40;;;;;;6298762;28;20506;-64
2021/03/23 13:55:29;;;;;;;4.80;2.30;;;13.80;33.30;;;;;;6298755;28;20473;-65
2021/03/23 13:58:32;;;;;;;3.00;2.10;;;13.90;33.10;;;;;;6298605;28;20517;-63
2021/03/23 14:01:34;;;;;;;4.03;3.20;;;13.90;32.40;;;;;;6298692;28;20477;-64
2021/03/23 14:04:36;;;;;;;4.43;2.47;;;13.80;33.50;;;;;;6298351;28;20469;-71
2021/03/23 14:07:44;;;;;;;4.37;2.27;;;13.60;33.40;;;;;;6283237;28;20482;-63
2021/03/23 14:10:49;;;;;;;3.60;2.27;;;13.50;34.10;;;;;;6273757;28;20565;-65
2021/03/23 14:13:51;;;;;;;4.20;2.47;;;13.40;34.20;;;;;;6285305;28;20484;-65
2021/03/23 14:16:54;;;;;;;7.43;2.43;;;13.50;33.80;;;;;;6298257;28;20474;-64
2021/03/23 14:19:59;;;;;;;4.33;2.20;;;13.50;33.80;;;;;;6298670;28;20820;-68
2021/03/23 14:23:07;;;;;;;5.73;2.43;;;13.50;34.00;;;;;;6299434;28;20840;-63
2021/03/23 14:26:10;;;;;;;3.90;2.73;;;13.30;34.30;;;;;;6302042;28;20469;-62
2021/03/23 14:29:13;;;;;;;3.50;2.40;;;13.30;34.40;;;;;;6301187;28;20477;-62
2021/03/23 14:32:15;;;;;;;2.47;2.30;;;13.30;34.10;;;;;;6300738;28;20475;-62
2021/03/23 14:35:19;;;;;;;5.33;2.57;;;13.10;33.80;;;;;;6296519;28;20448;-62
2021/03/23 14:38:29;;;;;;;3.00;2.50;;;12.80;34.00;;;;;;6300769;28;20465;-62
2021/03/23 14:41:44;;;;;;;5.10;2.70;;;12.70;34.70;;;;;;6301427;28;20481;-62
2021/03/23 14:45:09;;;;;;;7.43;2.57;;;12.60;34.90;;;;;;6302370;28;20473;-62
2021/03/23 14:48:15;;;;;;;4.57;2.53;;;12.60;35.20;;;;;;6302426;28;20799;-61
2021/03/23 14:51:19;;;;;;;2.57;2.30;;;12.50;35.10;;;;;;6302348;28;20482;-61
2021/03/23 14:54:25;;;;;;;4.33;2.53;;;12.40;35.30;;;;;;6301408;28;20835;-61
2021/03/23 14:57:29;;;;;;;5.67;2.47;;;12.40;35.80;;;;;;6301921;28;20472;-61
2021/03/23 15:00:37;;;;;;;3.70;2.60;;;12.50;36.30;;;;;;6302216;28;20474;-62
2021/03/23 15:03:39;;;;;;;5.00;2.30;;;12.30;36.20;;;;;;6302156;28;20556;-62
2021/03/23 15:06:43;;;;;;;4.27;2.80;;;12.10;36.20;;;;;;6294554;28;20548;-62
2021/03/23 15:09:47;;;;;;;3.80;2.90;;;12.00;36.70;;;;;;6277204;28;20466;-62
2021/03/23 15:12:49;;;;;;;4.40;2.53;;;11.80;37.10;;;;;;6279974;28;20476;-62
2021/03/23 15:15:52;;;;;;;3.07;2.40;;;11.80;37.20;;;;;;6302244;28;20544;-62
2021/03/23 15:18:57;;;;;;;8.67;2.90;;;11.80;37.30;;;;;;6302242;28;20569;-63
2021/03/23 15:21:59;;;;;;;4.73;2.67;;;11.90;37.10;;;;;;6302127;28;20483;-62
2021/03/23 15:25:06;;;;;;;4.77;2.80;;;11.90;37.30;;;;;;6301456;28;20512;-62
2021/03/23 15:28:09;;;;;;;7.53;3.23;;;11.90;37.40;;;;;;6301539;28;20823;-63
2021/03/23 15:31:11;;;;;;;5.37;2.40;;;11.90;37.40;;;;;;6301607;28;20469;-63
2021/03/23 15:34:14;;;;;;;3.80;2.90;;;11.70;37.90;;;;;;6301320;28;20469;-64
2021/03/23 15:37:24;;;;;;;5.13;3.07;;;11.60;37.70;;;;;;6301213;28;20974;-64
2021/03/23 15:40:31;;;;;;;3.67;3.23;;;11.40;38.00;;;;;;6301160;28;20472;-64
2021/03/23 15:43:34;;;;;;;2.97;2.17;;;11.40;38.70;;;;;;6286515;28;21075;-64
2021/03/23 15:46:36;;;;;;;8.40;3.07;;;11.30;38.30;;;;;;6294071;28;20501;-63
2021/03/23 15:49:40;;;;;;;3.03;2.40;;;11.40;39.20;;;;;;6276180;28;20495;-63
2021/03/23 15:52:42;;;;;;;4.40;2.77;;;11.40;38.90;;;;;;6294747;28;20501;-64
2021/03/23 15:55:46;;;;;;;4.57;3.10;;;11.30;39.10;;;;;;6300921;28;20473;-63
2021/03/23 15:58:48;;;;;;;4.33;3.00;;;11.00;39.60;;;;;;6300727;28;20466;-63
2021/03/23 16:01:51;;;;;;;3.10;2.80;;;10.90;40.50;;;;;;6277199;28;20603;-64
2021/03/23 16:04:53;;;;;;;4.20;2.40;;;11.00;40.90;;;;;;6275870;28;20975;-62
2021/03/23 16:07:59;;;;;;;4.40;3.27;;;11.00;40.80;;;;;;6293739;28;20484;-64
2021/03/23 16:11:02;;;;;;;3.57;2.90;;;11.10;40.80;;;;;;6300455;28;20445;-63
2021/03/23 16:14:05;;;;;;;5.87;2.93;;;11.10;41.00;;;;;;6300609;28;20452;-63